sensor_id;sensor_type;location;lat;lon;timestamp;pressure;altitude;pressure_sealevel;temperature;humidity
52535;BME280;38443;53.164;5.802;2023-03-22T00:02:20;100886.13;;;7.54;100.00
52535;BME280;38443;53.164;5.802;2023-03-22T00:04:45;100885.28;;;7.49;100.00
52535;BME280;38443;53.164;5.802;2023-03-22T00:07:10;100879.09;;;7.50;100.00
52535;BME280;38443;53.164;5.802;2023-03-22T00:09:36;100880.84;;;7.49;100.00
52535;BME280;38443;53.164;5.802;2023-03-22T00:12:02;100878.19;;;7.49;100.00
52535;BME280;38443;53.164;5.802;2023-03-22T00:14:27;100880.88;;;7.48;100.00
52535;BME280;38443;53.164;5.802;2023-03-22T00:16:52;100869.34;;;7.47;100.00
52535;BME280;38443;53.164;5.802;2023-03-22T00:19:18;100868.47;;;7.45;100.00
52535;BME280;38443;53.164;5.802;2023-03-22T00:21:43;100871.13;;;7.47;100.00
52535;BME280;38443;53.164;5.802;2023-03-22T00:24:08;100867.63;;;7.43;100.00
52535;BME280;38443;53.164;5.802;2023-03-22T00:26:34;100862.31;;;7.43;100.00
52535;BME280;38443;53.164;5.802;2023-03-22T00:28:59;100868.53;;;7.42;100.00
52535;BME280;38443;53.164;5.802;2023-03-22T00:31:25;100860.56;;;7.42;100.00
52535;BME280;38443;53.164;5.802;2023-03-22T00:33:50;100857.91;;;7.41;100.00
52535;BME280;38443;53.164;5.802;2023-03-22T00:36:15;100864.09;;;7.41;100.00
52535;BME280;38443;53.164;5.802;2023-03-22T00:38:40;100851.72;;;7.38;100.00
52535;BME280;38443;53.164;5.802;2023-03-22T00:41:17;100851.66;;;7.42;100.00
52535;BME280;38443;53.164;5.802;2023-03-22T00:43:44;100854.28;;;7.45;100.00
52535;BME280;38443;53.164;5.802;2023-03-22T00:46:10;100845.44;;;7.44;100.00
52535;BME280;38443;53.164;5.802;2023-03-22T00:48:35;100848.16;;;7.39;100.00
52535;BME280;38443;53.164;5.802;2023-03-22T00:51:01;100835.75;;;7.40;100.00
52535;BME280;38443;53.164;5.802;2023-03-22T00:53:27;100834.84;;;7.39;100.00
52535;BME280;38443;53.164;5.802;2023-03-22T00:55:57;100830.44;;;7.38;100.00
52535;BME280;38443;53.164;5.802;2023-03-22T00:58:22;100831.31;;;7.37;100.00
52535;BME280;38443;53.164;5.802;2023-03-22T01:00:48;100833.09;;;7.38;100.00
52535;BME280;38443;53.164;5.802;2023-03-22T01:03:13;100833.97;;;7.37;100.00
52535;BME280;38443;53.164;5.802;2023-03-22T01:05:40;100821.56;;;7.38;100.00
52535;BME280;38443;53.164;5.802;2023-03-22T01:08:06;100829.63;;;7.33;100.00
52535;BME280;38443;53.164;5.802;2023-03-22T01:10:35;100819.88;;;7.32;100.00
52535;BME280;38443;53.164;5.802;2023-03-22T01:13:01;100817.22;;;7.32;100.00
52535;BME280;38443;53.164;5.802;2023-03-22T01:15:26;100813.72;;;7.29;100.00
52535;BME280;38443;53.164;5.802;2023-03-22T01:17:52;100814.56;;;7.31;100.00
52535;BME280;38443;53.164;5.802;2023-03-22T01:20:17;100802.22;;;7.25;100.00
52535;BME280;38443;53.164;5.802;2023-03-22T01:22:42;100802.28;;;7.24;100.00
52535;BME280;38443;53.164;5.802;2023-03-22T01:25:08;100797.00;;;7.21;100.00
52535;BME280;38443;53.164;5.802;2023-03-22T01:27:33;100803.25;;;7.18;100.00
52535;BME280;38443;53.164;5.802;2023-03-22T01:29:59;100797.88;;;7.19;100.00
52535;BME280;38443;53.164;5.802;2023-03-22T01:32:24;100783.72;;;7.19;100.00
52535;BME280;38443;53.164;5.802;2023-03-22T01:34:49;100794.31;;;7.22;100.00
52535;BME280;38443;53.164;5.802;2023-03-22T01:37:16;100786.34;;;7.22;100.00
52535;BME280;38443;53.164;5.802;2023-03-22T01:39:41;100782.84;;;7.18;100.00
52535;BME280;38443;53.164;5.802;2023-03-22T01:42:12;100794.31;;;7.22;100.00
52535;BME280;38443;53.164;5.802;2023-03-22T01:44:37;100780.09;;;7.23;100.00
52535;BME280;38443;53.164;5.802;2023-03-22T01:47:03;100771.25;;;7.19;100.00
52535;BME280;38443;53.164;5.802;2023-03-22T01:49:31;100782.75;;;7.23;100.00
52535;BME280;38443;53.164;5.802;2023-03-22T01:52:05;100771.19;;;7.26;100.00
52535;BME280;38443;53.164;5.802;2023-03-22T01:54:37;100764.94;;;7.28;100.00
52535;BME280;38443;53.164;5.802;2023-03-22T01:57:06;100758.72;;;7.28;100.00
52535;BME280;38443;53.164;5.802;2023-03-22T01:59:31;100757.06;;;7.22;100.00
52535;BME280;38443;53.164;5.802;2023-03-22T02:02:00;100758.84;;;7.20;100.00
52535;BME280;38443;53.164;5.802;2023-03-22T02:04:30;100766.00;;;7.16;100.00
52535;BME280;38443;53.164;5.802;2023-03-22T02:07:00;100760.72;;;7.15;100.00
52535;BME280;38443;53.164;5.802;2023-03-22T02:09:26;100750.06;;;7.13;100.00
52535;BME280;38443;53.164;5.802;2023-03-22T02:12:04;100750.13;;;7.12;100.00
52535;BME280;38443;53.164;5.802;2023-03-22T02:14:57;100742.13;;;7.12;100.00
52535;BME280;38443;53.164;5.802;2023-03-22T02:17:57;100741.22;;;7.13;100.00
52535;BME280;38443;53.164;5.802;2023-03-22T02:20:50;100743.84;;;7.16;100.00
52535;BME280;38443;53.164;5.802;2023-03-22T02:34:56;100725.00;;;7.27;100.00
52535;BME280;38443;53.164;5.802;2023-03-22T02:40:35;100713.38;;;7.32;100.00
52535;BME280;38443;53.164;5.802;2023-03-22T02:45:45;100729.22;;;7.40;100.00
52535;BME280;38443;53.164;5.802;2023-03-22T02:48:27;100720.28;;;7.43;100.00
52535;BME280;38443;53.164;5.802;2023-03-22T02:51:00;100719.34;;;7.47;100.00
52535;BME280;38443;53.164;5.802;2023-03-22T02:53:48;100716.66;;;7.48;100.00
52535;BME280;38443;53.164;5.802;2023-03-22T02:58:52;100702.38;;;7.51;100.00
52535;BME280;38443;53.164;5.802;2023-03-22T03:01:29;100714.81;;;7.52;100.00
52535;BME280;38443;53.164;5.802;2023-03-22T03:03:58;100708.56;;;7.53;100.00
52535;BME280;38443;53.164;5.802;2023-03-22T03:06:27;100703.22;;;7.53;100.00
52535;BME280;38443;53.164;5.802;2023-03-22T03:08:55;100702.28;;;7.55;100.00
52535;BME280;38443;53.164;5.802;2023-03-22T03:11:30;100691.59;;;7.58;100.00
52535;BME280;38443;53.164;5.802;2023-03-22T03:13:55;100690.66;;;7.59;100.00
52535;BME280;38443;53.164;5.802;2023-03-22T03:16:22;100693.31;;;7.59;100.00
52535;BME280;38443;53.164;5.802;2023-03-22T03:19:25;100690.66;;;7.61;100.00
52535;BME280;38443;53.164;5.802;2023-03-22T03:22:07;100672.84;;;7.63;100.00
52535;BME280;38443;53.164;5.802;2023-03-22T03:24:46;100677.31;;;7.63;100.00
52535;BME280;38443;53.164;5.802;2023-03-22T03:27:35;100668.38;;;7.65;100.00
52535;BME280;38443;53.164;5.802;2023-03-22T03:30:08;100665.69;;;7.65;100.00
52535;BME280;38443;53.164;5.802;2023-03-22T03:32:45;100656.81;;;7.66;100.00
52535;BME280;38443;53.164;5.802;2023-03-22T03:35:18;100647.00;;;7.68;100.00
52535;BME280;38443;53.164;5.802;2023-03-22T03:37:53;100654.97;;;7.70;100.00
52535;BME280;38443;53.164;5.802;2023-03-22T03:40:32;100654.03;;;7.71;100.00
52535;BME280;38443;53.164;5.802;2023-03-22T03:43:02;100654.91;;;7.71;100.00
52535;BME280;38443;53.164;5.802;2023-03-22T03:45:28;100647.78;;;7.73;100.00
52535;BME280;38443;53.164;5.802;2023-03-22T03:47:56;100647.81;;;7.72;100.00
52535;BME280;38443;53.164;5.802;2023-03-22T03:50:23;100655.75;;;7.73;100.00
52535;BME280;38443;53.164;5.802;2023-03-22T03:52:50;100654.84;;;7.76;100.00
52535;BME280;38443;53.164;5.802;2023-03-22T03:55:15;100646.78;;;7.77;100.00
52535;BME280;38443;53.164;5.802;2023-03-22T03:57:41;100644.22;;;7.74;100.00
52535;BME280;38443;53.164;5.802;2023-03-22T04:00:06;100645.94;;;7.77;100.00
52535;BME280;38443;53.164;5.802;2023-03-22T04:02:32;100635.28;;;7.75;100.00
52535;BME280;38443;53.164;5.802;2023-03-22T04:04:57;100637.88;;;7.80;100.00
52535;BME280;38443;53.164;5.802;2023-03-22T04:07:22;100635.28;;;7.77;100.00
52535;BME280;38443;53.164;5.802;2023-03-22T04:09:48;100633.41;;;7.81;100.00
52535;BME280;38443;53.164;5.802;2023-03-22T04:12:13;100643.22;;;7.78;100.00
52535;BME280;38443;53.164;5.802;2023-03-22T04:14:39;100629.84;;;7.82;100.00
52535;BME280;38443;53.164;5.802;2023-03-22T04:17:05;100637.81;;;7.83;100.00
52535;BME280;38443;53.164;5.802;2023-03-22T04:19:31;100639.63;;;7.81;100.00
52535;BME280;38443;53.164;5.802;2023-03-22T04:21:56;100630.66;;;7.85;100.00
52535;BME280;38443;53.164;5.802;2023-03-22T04:24:22;100637.88;;;7.80;100.00
52535;BME280;38443;53.164;5.802;2023-03-22T04:26:47;100624.47;;;7.83;100.00
52535;BME280;38443;53.164;5.802;2023-03-22T04:29:13;100632.50;;;7.82;100.00
52535;BME280;38443;53.164;5.802;2023-03-22T04:31:38;100636.00;;;7.84;100.00
52535;BME280;38443;53.164;5.802;2023-03-22T04:34:04;100627.13;;;7.83;100.00
52535;BME280;38443;53.164;5.802;2023-03-22T04:36:33;100616.47;;;7.83;100.00
52535;BME280;38443;53.164;5.802;2023-03-22T04:39:10;100612.94;;;7.83;100.00
52535;BME280;38443;53.164;5.802;2023-03-22T04:41:36;100616.47;;;7.85;100.00
52535;BME280;38443;53.164;5.802;2023-03-22T04:44:02;100612.00;;;7.85;100.00
52535;BME280;38443;53.164;5.802;2023-03-22T04:46:32;100611.06;;;7.88;100.00
52535;BME280;38443;53.164;5.802;2023-03-22T04:48:58;100609.25;;;7.90;100.00
52535;BME280;38443;53.164;5.802;2023-03-22T04:51:24;100600.34;;;7.89;100.00
52535;BME280;38443;53.164;5.802;2023-03-22T04:53:50;100598.50;;;7.93;100.00
52535;BME280;38443;53.164;5.802;2023-03-22T04:56:15;100594.97;;;7.92;100.00
52535;BME280;38443;53.164;5.802;2023-03-22T04:58:42;100583.34;;;7.95;100.00
52535;BME280;38443;53.164;5.802;2023-03-22T05:01:09;100586.88;;;7.97;100.00
52535;BME280;38443;53.164;5.802;2023-03-22T05:03:35;100570.97;;;7.94;100.00
52535;BME280;38443;53.164;5.802;2023-03-22T05:06:01;100570.13;;;7.92;100.00
52535;BME280;38443;53.164;5.802;2023-03-22T05:08:29;100578.13;;;7.92;100.00
52535;BME280;38443;53.164;5.802;2023-03-22T05:10:56;100571.88;;;7.93;100.00
52535;BME280;38443;53.164;5.802;2023-03-22T05:13:24;100562.13;;;7.92;100.00
52535;BME280;38443;53.164;5.802;2023-03-22T05:15:50;100554.13;;;7.92;100.00
52535;BME280;38443;53.164;5.802;2023-03-22T05:18:16;100555.03;;;7.91;100.00
52535;BME280;38443;53.164;5.802;2023-03-22T05:20:45;100558.56;;;7.91;100.00
52535;BME280;38443;53.164;5.802;2023-03-22T05:23:10;100552.38;;;7.91;100.00
52535;BME280;38443;53.164;5.802;2023-03-22T05:25:35;100554.22;;;7.87;100.00
52535;BME280;38443;53.164;5.802;2023-03-22T05:28:01;100556.88;;;7.87;100.00
52535;BME280;38443;53.164;5.802;2023-03-22T05:30:28;100554.22;;;7.87;100.00
52535;BME280;38443;53.164;5.802;2023-03-22T05:32:58;100556.00;;;7.87;100.00
52535;BME280;38443;53.164;5.802;2023-03-22T05:35:24;100548.03;;;7.87;100.00
52535;BME280;38443;53.164;5.802;2023-03-22T05:37:50;100548.03;;;7.87;100.00
52535;BME280;38443;53.164;5.802;2023-03-22T05:40:15;100555.16;;;7.85;100.00
52535;BME280;38443;53.164;5.802;2023-03-22T05:42:41;100556.91;;;7.86;100.00
52535;BME280;38443;53.164;5.802;2023-03-22T05:45:06;100556.03;;;7.85;100.00
52535;BME280;38443;53.164;5.802;2023-03-22T05:47:32;100548.03;;;7.87;100.00
52535;BME280;38443;53.164;5.802;2023-03-22T05:49:57;100543.66;;;7.84;100.00
52535;BME280;38443;53.164;5.802;2023-03-22T05:52:23;100548.97;;;7.84;100.00
52535;BME280;38443;53.164;5.802;2023-03-22T05:54:48;100546.31;;;7.84;100.00
52535;BME280;38443;53.164;5.802;2023-03-22T05:57:13;100542.75;;;7.84;100.00
52535;BME280;38443;53.164;5.802;2023-03-22T05:59:39;100534.81;;;7.82;100.00
52535;BME280;38443;53.164;5.802;2023-03-22T06:02:04;100532.16;;;7.82;100.00
52535;BME280;38443;53.164;5.802;2023-03-22T06:04:29;100528.59;;;7.82;100.00
52535;BME280;38443;53.164;5.802;2023-03-22T06:06:54;100542.75;;;7.84;100.00
52535;BME280;38443;53.164;5.802;2023-03-22T06:09:20;100538.25;;;7.86;100.00
52535;BME280;38443;53.164;5.802;2023-03-22T06:11:45;100525.88;;;7.85;100.00
52535;BME280;38443;53.164;5.802;2023-03-22T06:14:11;100520.50;;;7.86;100.00
52535;BME280;38443;53.164;5.802;2023-03-22T06:16:36;100520.47;;;7.88;100.00
52535;BME280;38443;53.164;5.802;2023-03-22T06:19:01;100516.88;;;7.89;100.00
52535;BME280;38443;53.164;5.802;2023-03-22T06:21:27;100509.75;;;7.89;100.00
52535;BME280;38443;53.164;5.802;2023-03-22T06:23:52;100522.16;;;7.92;100.00
52535;BME280;38443;53.164;5.802;2023-03-22T06:26:17;100516.75;;;7.95;100.00
52535;BME280;38443;53.164;5.802;2023-03-22T06:28:43;100502.41;;;7.99;100.00
52535;BME280;38443;53.164;5.802;2023-03-22T06:31:08;100504.94;;;8.05;100.00
52535;BME280;38443;53.164;5.802;2023-03-22T06:33:35;100509.22;;;8.12;100.00
52535;BME280;38443;53.164;5.802;2023-03-22T06:36:01;100500.22;;;8.16;100.00
52535;BME280;38443;53.164;5.802;2023-03-22T06:38:27;100504.63;;;8.17;100.00
52535;BME280;38443;53.164;5.802;2023-03-22T06:40:53;100506.38;;;8.20;100.00
52535;BME280;38443;53.164;5.802;2023-03-22T06:43:18;100517.94;;;8.19;100.00
52535;BME280;38443;53.164;5.802;2023-03-22T06:45:47;100499.22;;;8.22;100.00
52535;BME280;38443;53.164;5.802;2023-03-22T06:48:13;100514.22;;;8.26;100.00
52535;BME280;38443;53.164;5.802;2023-03-22T06:50:39;100507.94;;;8.27;100.00
52535;BME280;38443;53.164;5.802;2023-03-22T06:53:06;100509.63;;;8.31;100.00
52535;BME280;38443;53.164;5.802;2023-03-22T06:55:31;100505.13;;;8.33;100.00
52535;BME280;38443;53.164;5.802;2023-03-22T06:58:00;100495.28;;;8.35;100.00
52535;BME280;38443;53.164;5.802;2023-03-22T07:00:26;100510.44;;;8.33;100.00
52535;BME280;38443;53.164;5.802;2023-03-22T07:02:51;100505.09;;;8.35;100.00
52535;BME280;38443;53.164;5.802;2023-03-22T07:05:16;100513.13;;;8.33;100.00
52535;BME280;38443;53.164;5.802;2023-03-22T07:07:42;100499.91;;;8.29;100.00
52535;BME280;38443;53.164;5.802;2023-03-22T07:10:08;100508.69;;;8.34;100.00
52535;BME280;38443;53.164;5.802;2023-03-22T07:12:33;100506.91;;;8.33;100.00
52535;BME280;38443;53.164;5.802;2023-03-22T07:14:58;100500.69;;;8.34;100.00
52535;BME280;38443;53.164;5.802;2023-03-22T07:17:23;100487.34;;;8.34;100.00
52535;BME280;38443;53.164;5.802;2023-03-22T07:19:49;100497.91;;;8.38;100.00
52535;BME280;38443;53.164;5.802;2023-03-22T07:22:14;100505.88;;;8.40;100.00
52535;BME280;38443;53.164;5.802;2023-03-22T07:24:39;100479.22;;;8.38;100.00
52535;BME280;38443;53.164;5.802;2023-03-22T07:27:05;100458.72;;;8.42;100.00
52535;BME280;38443;53.164;5.802;2023-03-22T07:29:31;100471.97;;;8.45;100.00
52535;BME280;38443;53.164;5.802;2023-03-22T07:31:57;100486.22;;;8.44;100.00
52535;BME280;38443;53.164;5.802;2023-03-22T07:34:22;100494.09;;;8.49;100.00
52535;BME280;38443;53.164;5.802;2023-03-22T07:36:47;100465.59;;;8.51;100.00
52535;BME280;38443;53.164;5.802;2023-03-22T07:39:13;100484.22;;;8.52;100.00
52535;BME280;38443;53.164;5.802;2023-03-22T07:41:38;100480.75;;;8.49;100.00
52535;BME280;38443;53.164;5.802;2023-03-22T07:44:04;100468.28;;;8.49;100.00
52535;BME280;38443;53.164;5.802;2023-03-22T07:46:31;100461.13;;;8.51;100.00
52535;BME280;38443;53.164;5.802;2023-03-22T07:48:56;100471.78;;;8.51;100.00
52535;BME280;38443;53.164;5.802;2023-03-22T07:51:21;100475.13;;;8.59;100.00
52535;BME280;38443;53.164;5.802;2023-03-22T07:53:46;100473.28;;;8.62;100.00
52535;BME280;38443;53.164;5.802;2023-03-22T07:56:12;100472.13;;;8.72;100.00
52535;BME280;38443;53.164;5.802;2023-03-22T07:58:37;100470.25;;;8.75;100.00
52535;BME280;38443;53.164;5.802;2023-03-22T08:01:04;100464.72;;;8.82;100.00
52535;BME280;38443;53.164;5.802;2023-03-22T08:03:33;100470.91;;;8.84;100.00
52535;BME280;38443;53.164;5.802;2023-03-22T08:05:59;100455.88;;;8.81;100.00
52535;BME280;38443;53.164;5.802;2023-03-22T08:08:28;100458.41;;;8.86;100.00
52535;BME280;38443;53.164;5.802;2023-03-22T08:10:53;100442.47;;;8.83;100.00
52535;BME280;38443;53.164;5.802;2023-03-22T08:13:19;100440.59;;;8.86;100.00
52535;BME280;38443;53.164;5.802;2023-03-22T08:15:44;100439.78;;;8.84;100.00
52535;BME280;38443;53.164;5.802;2023-03-22T08:18:10;100440.53;;;8.88;100.00
52535;BME280;38443;53.164;5.802;2023-03-22T08:20:35;100447.53;;;8.92;100.00
52535;BME280;38443;53.164;5.802;2023-03-22T08:23:01;100448.22;;;9.00;100.00
52535;BME280;38443;53.164;5.802;2023-03-22T08:25:27;100456.09;;;9.05;100.00
52535;BME280;38443;53.164;5.802;2023-03-22T08:27:53;100452.41;;;9.09;100.00
52535;BME280;38443;53.164;5.802;2023-03-22T08:30:18;100447.97;;;9.08;100.00
52535;BME280;38443;53.164;5.802;2023-03-22T08:32:46;100455.09;;;9.07;100.00
52535;BME280;38443;53.164;5.802;2023-03-22T08:35:11;100454.25;;;9.07;100.00
52535;BME280;38443;53.164;5.802;2023-03-22T08:37:36;100464.97;;;9.05;100.00
52535;BME280;38443;53.164;5.802;2023-03-22T08:40:02;100449.16;;;8.97;100.00
52535;BME280;38443;53.164;5.802;2023-03-22T08:42:31;100453.81;;;8.91;100.00
52535;BME280;38443;53.164;5.802;2023-03-22T08:44:56;100432.72;;;8.82;100.00
52535;BME280;38443;53.164;5.802;2023-03-22T08:47:21;100460.38;;;8.79;100.00
52535;BME280;38443;53.164;5.802;2023-03-22T08:49:47;100464.13;;;8.72;100.00
52535;BME280;38443;53.164;5.802;2023-03-22T08:52:12;100440.25;;;8.67;100.00
52535;BME280;38443;53.164;5.802;2023-03-22T08:54:37;100462.69;;;8.60;100.00
52535;BME280;38443;53.164;5.802;2023-03-22T08:57:03;100449.38;;;8.58;100.00
52535;BME280;38443;53.164;5.802;2023-03-22T08:59:28;100453.06;;;8.54;100.00
52535;BME280;38443;53.164;5.802;2023-03-22T09:01:53;100470.91;;;8.52;100.00
52535;BME280;38443;53.164;5.802;2023-03-22T09:04:19;100450.56;;;8.48;100.00
52535;BME280;38443;53.164;5.802;2023-03-22T09:06:44;100471.00;;;8.48;100.00
52535;BME280;38443;53.164;5.802;2023-03-22T09:09:11;100459.47;;;8.47;100.00
52535;BME280;38443;53.164;5.802;2023-03-22T09:11:36;100462.22;;;8.44;100.00
52535;BME280;38443;53.164;5.802;2023-03-22T09:14:04;100452.47;;;8.43;100.00
52535;BME280;38443;53.164;5.802;2023-03-22T09:16:29;100467.69;;;8.38;100.00
52535;BME280;38443;53.164;5.802;2023-03-22T09:18:55;100469.44;;;8.39;100.00
52535;BME280;38443;53.164;5.802;2023-03-22T09:21:20;100477.53;;;8.36;100.00
52535;BME280;38443;53.164;5.802;2023-03-22T09:23:46;100475.75;;;8.35;100.00
52535;BME280;38443;53.164;5.802;2023-03-22T09:26:12;100475.84;;;8.32;100.00
52535;BME280;38443;53.164;5.802;2023-03-22T09:28:37;100470.66;;;8.26;100.00
52535;BME280;38443;53.164;5.802;2023-03-22T09:31:04;100477.88;;;8.22;100.00
52535;BME280;38443;53.164;5.802;2023-03-22T09:33:30;100486.81;;;8.19;100.00
52535;BME280;38443;53.164;5.802;2023-03-22T09:35:56;100476.25;;;8.16;100.00
52535;BME280;38443;53.164;5.802;2023-03-22T09:38:23;100467.44;;;8.13;100.00
52535;BME280;38443;53.164;5.802;2023-03-22T09:40:54;100469.28;;;8.09;100.00
52535;BME280;38443;53.164;5.802;2023-03-22T09:43:26;100471.13;;;8.07;100.00
52535;BME280;38443;53.164;5.802;2023-03-22T09:45:53;100486.31;;;8.04;100.00
52535;BME280;38443;53.164;5.802;2023-03-22T09:48:37;100475.75;;;8.01;100.00
52535;BME280;38443;53.164;5.802;2023-03-22T09:51:05;100488.25;;;7.97;100.00
52535;BME280;38443;53.164;5.802;2023-03-22T09:53:32;100468.75;;;7.95;100.00
52535;BME280;38443;53.164;5.802;2023-03-22T09:56:08;100480.34;;;7.94;100.00
52535;BME280;38443;53.164;5.802;2023-03-22T10:04:05;100488.28;;;7.95;100.00
52535;BME280;38443;53.164;5.802;2023-03-22T10:06:39;100478.59;;;7.93;100.00
52535;BME280;38443;53.164;5.802;2023-03-22T10:09:17;100486.59;;;7.93;100.00
52535;BME280;38443;53.164;5.802;2023-03-22T10:12:03;100478.59;;;7.93;100.00
52535;BME280;38443;53.164;5.802;2023-03-22T10:17:07;100492.84;;;7.92;100.00
52535;BME280;38443;53.164;5.802;2023-03-22T10:19:50;100490.22;;;7.90;100.00
52535;BME280;38443;53.164;5.802;2023-03-22T10:22:20;100503.44;;;7.93;100.00
52535;BME280;38443;53.164;5.802;2023-03-22T10:24:49;100481.25;;;7.93;100.00
52535;BME280;38443;53.164;5.802;2023-03-22T10:27:18;100493.69;;;7.94;100.00
52535;BME280;38443;53.164;5.802;2023-03-22T10:29:58;100484.69;;;7.98;100.00
52535;BME280;38443;53.164;5.802;2023-03-22T10:32:38;100500.63;;;7.99;100.00
52535;BME280;38443;53.164;5.802;2023-03-22T10:35:05;100494.38;;;8.02;100.00
52535;BME280;38443;53.164;5.802;2023-03-22T10:37:32;100488.09;;;8.03;100.00
52535;BME280;38443;53.164;5.802;2023-03-22T10:39:59;100486.25;;;8.07;100.00
52535;BME280;38443;53.164;5.802;2023-03-22T10:42:27;100489.72;;;8.10;100.00
52535;BME280;38443;53.164;5.802;2023-03-22T10:45:00;100496.75;;;8.13;100.00
52535;BME280;38443;53.164;5.802;2023-03-22T10:47:33;100496.69;;;8.16;100.00
52535;BME280;38443;53.164;5.802;2023-03-22T10:50:03;100492.13;;;8.19;100.00
52535;BME280;38443;53.164;5.802;2023-03-22T10:55:42;100493.78;;;8.25;100.00
52535;BME280;38443;53.164;5.802;2023-03-22T10:58:16;100492.81;;;8.28;100.00
52535;BME280;38443;53.164;5.802;2023-03-22T11:00:50;100492.72;;;8.32;100.00
52535;BME280;38443;53.164;5.802;2023-03-22T11:03:35;100483.78;;;8.33;100.00
52535;BME280;38443;53.164;5.802;2023-03-22T11:06:10;100485.56;;;8.34;100.00
52535;BME280;38443;53.164;5.802;2023-03-22T11:08:45;100481.94;;;8.37;100.00
52535;BME280;38443;53.164;5.802;2023-03-22T11:13:41;100473.03;;;8.38;100.00
52535;BME280;38443;53.164;5.802;2023-03-22T11:16:08;100479.16;;;8.42;100.00
52535;BME280;38443;53.164;5.802;2023-03-22T11:18:33;100480.97;;;8.41;100.00
52535;BME280;38443;53.164;5.802;2023-03-22T11:21:09;100491.50;;;8.46;100.00
52535;BME280;38443;53.164;5.802;2023-03-22T11:23:36;100484.28;;;8.49;100.00
52535;BME280;38443;53.164;5.802;2023-03-22T11:26:08;100478.88;;;8.54;100.00
52535;BME280;38443;53.164;5.802;2023-03-22T11:31:10;100491.13;;;8.59;100.00
52535;BME280;38443;53.164;5.802;2023-03-22T11:33:36;100479.47;;;8.64;100.00
52535;BME280;38443;53.164;5.802;2023-03-22T11:36:16;100498.06;;;8.67;100.00
52535;BME280;38443;53.164;5.802;2023-03-22T11:38:42;100501.56;;;8.69;100.00
52535;BME280;38443;53.164;5.802;2023-03-22T11:41:27;100515.03;;;8.64;100.00
52535;BME280;38443;53.164;5.802;2023-03-22T11:44:00;100503.44;;;8.65;100.00
52535;BME280;38443;53.164;5.802;2023-03-22T11:46:27;100514.97;;;8.66;100.00
52535;BME280;38443;53.164;5.802;2023-03-22T11:48:57;100501.72;;;8.64;100.00
52535;BME280;38443;53.164;5.802;2023-03-22T11:51:30;100532.88;;;8.62;100.00
52535;BME280;38443;53.164;5.802;2023-03-22T11:54:16;100541.81;;;8.59;100.00
52535;BME280;38443;53.164;5.802;2023-03-22T11:56:48;100537.41;;;8.58;100.00
52535;BME280;38443;53.164;5.802;2023-03-22T11:59:27;100532.09;;;8.58;100.00
52535;BME280;38443;53.164;5.802;2023-03-22T12:01:59;100524.91;;;8.61;100.00
52535;BME280;38443;53.164;5.802;2023-03-22T12:04:27;100519.47;;;8.64;100.00
52535;BME280;38443;53.164;5.802;2023-03-22T12:07:03;100524.81;;;8.64;100.00
52535;BME280;38443;53.164;5.802;2023-03-22T12:09:40;100521.31;;;8.62;100.00
52535;BME280;38443;53.164;5.802;2023-03-22T12:12:16;100523.97;;;8.62;100.00
52535;BME280;38443;53.164;5.802;2023-03-22T12:15:03;100530.16;;;8.64;100.00
52535;BME280;38443;53.164;5.802;2023-03-22T12:17:30;100545.28;;;8.63;100.00
52535;BME280;38443;53.164;5.802;2023-03-22T12:22:52;100549.09;;;8.54;100.00
52535;BME280;38443;53.164;5.802;2023-03-22T12:25:21;100534.00;;;8.52;100.00
52535;BME280;38443;53.164;5.802;2023-03-22T12:27:58;100528.81;;;8.47;100.00
52535;BME280;38443;53.164;5.802;2023-03-22T12:30:29;100535.06;;;8.46;100.00
52535;BME280;38443;53.164;5.802;2023-03-22T12:33:05;100534.22;;;8.44;100.00
52535;BME280;38443;53.164;5.802;2023-03-22T12:35:35;100528.97;;;8.41;100.00
52535;BME280;38443;53.164;5.802;2023-03-22T12:40:40;100525.44;;;8.39;100.00
52535;BME280;38443;53.164;5.802;2023-03-22T12:43:16;100526.38;;;8.38;100.00
52535;BME280;38443;53.164;5.802;2023-03-22T12:45:47;100531.69;;;8.38;100.00
52535;BME280;38443;53.164;5.802;2023-03-22T12:48:19;100524.53;;;8.40;100.00
52535;BME280;38443;53.164;5.802;2023-03-22T12:50:55;100529.88;;;8.40;100.00
52535;BME280;38443;53.164;5.802;2023-03-22T12:53:25;100528.09;;;8.39;100.00
52535;BME280;38443;53.164;5.802;2023-03-22T12:55:52;100529.91;;;8.38;100.00
52535;BME280;38443;53.164;5.802;2023-03-22T12:58:22;100528.13;;;8.37;100.00
52535;BME280;38443;53.164;5.802;2023-03-22T13:03:53;100529.88;;;8.40;100.00
52535;BME280;38443;53.164;5.802;2023-03-22T13:06:31;100532.56;;;8.38;100.00
52535;BME280;38443;53.164;5.802;2023-03-22T13:11:33;100533.56;;;8.34;100.00
52535;BME280;38443;53.164;5.802;2023-03-22T13:13:59;100528.22;;;8.34;100.00
52535;BME280;38443;53.164;5.802;2023-03-22T13:16:40;100523.84;;;8.32;100.00
52535;BME280;38443;53.164;5.802;2023-03-22T13:19:26;100520.38;;;8.28;100.00
52535;BME280;38443;53.164;5.802;2023-03-22T13:22:15;100526.56;;;8.30;100.00
52535;BME280;38443;53.164;5.802;2023-03-22T13:25:06;100537.22;;;8.30;100.00
52535;BME280;38443;53.164;5.802;2023-03-22T13:32:47;100513.28;;;8.27;100.00
52535;BME280;38443;53.164;5.802;2023-03-22T13:35:26;100527.47;;;8.28;100.00
52535;BME280;38443;53.164;5.802;2023-03-22T13:37:59;100536.38;;;8.28;100.00
52535;BME280;38443;53.164;5.802;2023-03-22T13:42:51;100519.47;;;8.28;100.00
52535;BME280;38443;53.164;5.802;2023-03-22T13:45:31;100524.78;;;8.29;100.00
52535;BME280;38443;53.164;5.802;2023-03-22T13:48:04;100524.72;;;8.32;100.00
52535;BME280;38443;53.164;5.802;2023-03-22T13:50:32;100531.78;;;8.33;100.00
52535;BME280;38443;53.164;5.802;2023-03-22T13:53:02;100530.88;;;8.34;100.00
52535;BME280;38443;53.164;5.802;2023-03-22T13:58:35;100520.06;;;8.41;100.00